Previous Day
Next Day
Current Day
SHEF ID: FVSO2 FAIRVIEW
STATION TYPE: Mesonet
PRECIP AIR-TEMP WIND-DIRWIND-SPEED REL-HUMID SOLAR-RAD
in F deg mph % W/m2
Raw-Meson Raw-Meson Raw-Meson Raw-Meson Raw-Meson Raw-Meson
(US/Central)
06/03 00:00 0.00 62.92 140.75 3.35 91.25 0.00
06/03 01:00 0.00 61.12 159.00 3.52 94.00 0.00
06/03 02:00 0.00 61.12 162.25 4.81 93.25 0.00
06/03 03:00 0.00 61.84 196.25 5.98 90.75 0.00
06/03 04:00 0.00 61.39 194.25 2.18 92.25 0.00
06/03 05:00 0.00 58.33 113.75 3.19 95.25 0.00
06/03 06:00 0.00 58.37 130.00 2.07 96.75 0.00
06/03 07:00 0.00 58.82 45.50 2.29 95.50 25.25
06/03 08:00 0.00 61.66 165.75 1.74 90.25 201.75
06/03 09:00 0.00 67.82 175.00 3.41 79.75 391.25
06/03 10:00 0.00 73.63 183.00 3.53 71.25 594.00
06/03 11:00 0.00 77.13 222.75 5.09 64.50 799.00
06/03 12:00 0.00 78.13 224.00 2.35 60.50 601.50
06/03 13:00 0.00 80.33 145.00 2.51 53.50 864.00
06/03 14:00 0.00 82.13 192.25 2.74 47.00 541.25
06/03 15:00 0.00 84.16 245.25 3.80 42.75 950.75
06/03 16:00 0.00 84.61 146.75 4.20 41.75 771.75
06/03 17:00 0.00 83.53 100.00 4.31 44.00 402.75
06/03 18:00 0.00 83.88 106.75 6.54 46.25 428.00
06/03 19:00 0.00 84.25 131.00 8.44 45.00 374.50
06/03 20:00 0.00 81.32 149.50 8.78 52.25 172.25
06/03 21:00 0.00 76.01 157.00 6.60 65.25 23.00
06/03 22:00 0.00 71.02 167.50 5.37 78.50 0.00
06/03 23:00 0.00 68.31 173.25 3.97 85.25 0.00